Time;durP1;ratioP1;P1;durP2;ratioP2;P2;SDS_P1;SDS_P2;PMS_P1;PMS_P2;Temp;Humidity;BMP_temperature;BMP_pressure;BME280_temperature;BME280_humidity;BME280_pressure;Samples;Min_cycle;Max_cycle;Signal;HPM_P1;HPM_P2
2021/05/21 00:02:17;;;;;;;3.42;1.88;;;;;;;19.73;41.81;99220.34;5004018;28;20037;-76
2021/05/21 00:04:43;;;;;;;6.63;1.58;;;;;;;19.86;41.59;99245.00;5020409;28;20056;-77
2021/05/21 00:07:09;;;;;;;5.68;1.70;;;;;;;19.91;41.89;99241.72;5004388;28;20057;-78
2021/05/21 00:09:35;;;;;;;6.50;1.60;;;;;;;19.89;42.04;99239.16;5019867;28;20094;-76
2021/05/21 00:12:01;;;;;;;3.22;2.00;;;;;;;19.87;41.91;99230.41;5036915;28;20179;-77
2021/05/21 00:14:27;;;;;;;4.18;1.60;;;;;;;19.92;41.95;99236.09;5052991;28;20079;-77
2021/05/21 00:16:53;;;;;;;6.97;2.20;;;;;;;19.91;42.19;99239.84;5036389;28;20052;-77
2021/05/21 00:19:19;;;;;;;4.70;1.63;;;;;;;19.95;42.10;99246.59;5053192;28;20416;-77
2021/05/21 00:21:45;;;;;;;2.15;1.55;;;;;;;19.95;42.09;99226.75;5036345;28;20048;-77
2021/05/21 00:24:11;;;;;;;2.72;1.77;;;;;;;19.93;42.20;99204.38;5035975;28;20040;-77
2021/05/21 00:26:37;;;;;;;7.70;1.73;;;;;;;19.98;42.24;99196.53;5019627;28;20044;-76
2021/05/21 00:29:03;;;;;;;11.07;2.10;;;;;;;20.00;42.02;99208.03;5036118;28;20102;-77
2021/05/21 00:31:29;;;;;;;5.07;2.53;;;;;;;20.01;41.99;99216.00;5019622;28;20459;-77
2021/05/21 00:34:13;;;;;;;6.15;2.08;;;;;;;19.88;41.87;99194.09;5039064;28;20127;-78
2021/05/21 00:36:39;;;;;;;7.72;2.05;;;;;;;19.91;41.93;99204.56;5003662;28;20140;-77
2021/05/21 00:39:05;;;;;;;3.00;1.52;;;;;;;19.96;41.52;99215.69;5020174;28;20044;-78
2021/05/21 00:41:31;;;;;;;3.92;1.60;;;;;;;20.01;41.06;99210.56;5019596;28;20067;-77
2021/05/21 00:43:57;;;;;;;3.25;1.80;;;;;;;19.97;40.77;99213.81;5019530;28;20033;-77
2021/05/21 00:46:26;;;;;;;4.40;1.38;;;;;;;20.03;40.60;99216.66;5053700;28;20208;-78
2021/05/21 00:48:52;;;;;;;6.07;1.60;;;;;;;20.06;40.41;99219.00;5019313;28;20163;-77
2021/05/21 00:51:18;;;;;;;3.58;1.30;;;;;;;20.10;40.23;99231.16;5019191;28;20135;-77
2021/05/21 00:53:45;;;;;;;5.43;1.40;;;;;;;20.12;40.15;99233.66;5019261;28;20044;-78
2021/05/21 00:56:11;;;;;;;5.55;1.60;;;;;;;20.05;39.34;99222.75;5002914;28;20047;-78
2021/05/21 00:58:37;;;;;;;3.10;1.27;;;;;;;20.04;39.29;99231.88;5035778;28;20044;-78
2021/05/21 01:01:04;;;;;;;4.53;1.13;;;;;;;20.03;38.94;99216.66;5019350;28;20099;-77
2021/05/21 01:03:30;;;;;;;8.20;1.98;;;;;;;20.12;39.20;99207.41;5035238;28;20076;-79
2021/05/21 01:05:56;;;;;;;2.83;1.20;;;;;;;20.25;38.84;99222.16;5019104;28;20054;-78
2021/05/21 01:08:22;;;;;;;4.68;1.30;;;;;;;20.35;38.85;99211.88;5044358;28;20492;-77
2021/05/21 01:10:48;;;;;;;6.55;1.48;;;;;;;20.39;38.52;99202.31;4999889;28;20160;-79
2021/05/21 01:13:14;;;;;;;2.67;1.13;;;;;;;20.54;38.54;99205.03;4967001;28;20041;-77
2021/05/21 01:15:41;;;;;;;3.88;1.30;;;;;;;20.65;38.49;99209.13;4983302;28;20041;-77
2021/05/21 01:18:09;;;;;;;4.72;1.50;;;;;;;20.71;38.38;99211.91;5033101;28;20385;-77
2021/05/21 01:20:35;;;;;;;10.25;1.50;;;;;;;20.78;38.24;99207.41;4999605;28;20041;-76
2021/05/21 01:23:01;;;;;;;5.50;1.40;;;;;;;20.83;38.13;99212.25;4999104;28;20540;-78
2021/05/21 01:25:27;;;;;;;5.72;1.52;;;;;;;20.95;38.25;99212.59;4999832;28;20049;-77
2021/05/21 01:27:55;;;;;;;5.55;1.60;;;;;;;21.02;38.19;99214.34;5015542;28;20056;-77
2021/05/21 01:30:21;;;;;;;4.70;1.70;;;;;;;21.06;37.85;99226.53;4982594;28;20041;-77
2021/05/21 01:32:47;;;;;;;4.55;1.55;;;;;;;21.20;37.89;99237.53;4998949;28;20120;-77
2021/05/21 01:35:17;;;;;;;4.50;1.58;;;;;;;21.27;37.49;99243.88;5015322;28;20087;-75
2021/05/21 01:37:44;;;;;;;5.88;1.85;;;;;;;21.16;37.59;99236.25;4982964;28;20144;-78
2021/05/21 01:40:11;;;;;;;7.00;1.60;;;;;;;21.28;37.76;99248.28;4999064;28;20049;-77
2021/05/21 01:42:37;;;;;;;5.78;1.50;;;;;;;21.26;37.75;99258.50;4999287;28;20045;-76
2021/05/21 01:45:03;;;;;;;3.97;2.10;;;;;;;21.36;38.98;99256.31;4982831;28;20049;-77
2021/05/21 01:47:30;;;;;;;6.15;1.38;;;;;;;21.46;40.05;99262.28;4999253;28;20042;-78
2021/05/21 01:49:57;;;;;;;4.35;1.70;;;;;;;21.33;38.44;99256.75;4998777;28;20045;-77
2021/05/21 01:52:23;;;;;;;10.27;1.73;;;;;;;21.34;38.31;99261.13;4998685;28;20057;-77
2021/05/21 01:54:49;;;;;;;6.75;1.50;;;;;;;21.37;38.16;99244.44;4999114;28;20053;-77
2021/05/21 01:57:15;;;;;;;9.05;1.80;;;;;;;21.42;38.22;99257.44;4998906;28;20073;-76
2021/05/21 01:59:41;;;;;;;9.38;1.63;;;;;;;21.45;38.23;99257.91;5005157;28;20041;-78
2021/05/21 02:02:08;;;;;;;3.40;1.70;;;;;;;21.51;38.10;99257.13;5012994;28;20045;-80
2021/05/21 02:04:40;;;;;;;7.60;1.50;;;;;;;21.58;37.99;99246.28;5036246;28;20050;-77
2021/05/21 02:07:10;;;;;;;8.88;1.77;;;;;;;21.60;38.08;99251.53;5015972;28;20048;-78
2021/05/21 02:09:47;;;;;;;9.23;1.67;;;;;;;21.76;37.80;99253.97;5016906;28;20053;-78
2021/05/21 02:12:14;;;;;;;9.13;1.63;;;;;;;21.85;37.82;99252.78;5051764;28;20153;-81
2021/05/21 02:14:40;;;;;;;7.30;1.63;;;;;;;22.06;37.83;99241.84;5034886;28;20063;-77
2021/05/21 02:17:06;;;;;;;8.40;1.88;;;;;;;22.26;37.88;99232.97;5056233;28;20049;-79
2021/05/21 02:19:32;;;;;;;8.10;1.80;;;;;;;22.37;37.62;99235.13;5055185;28;20072;-81
2021/05/21 02:21:58;;;;;;;5.57;1.55;;;;;;;22.47;37.55;99227.44;4990246;28;20075;-76
2021/05/21 02:24:24;;;;;;;6.88;1.70;;;;;;;22.54;37.90;99230.22;5038599;28;20135;-74
2021/05/21 02:26:49;;;;;;;5.38;2.22;;;;;;;22.72;37.81;99233.22;5038146;28;20053;-77
2021/05/21 02:29:15;;;;;;;10.45;1.75;;;;;;;22.88;37.65;99229.28;5037769;28;20056;-76
2021/05/21 02:31:41;;;;;;;5.05;1.77;;;;;;;23.05;37.61;99231.66;5038039;28;20079;-78
2021/05/21 02:34:07;;;;;;;9.45;2.22;;;;;;;23.20;37.88;99241.34;5054551;28;20583;-78
2021/05/21 02:36:33;;;;;;;7.35;2.30;;;;;;;23.37;37.49;99249.97;5038126;28;20048;-76
2021/05/21 02:38:59;;;;;;;23.80;2.72;;;;;;;23.39;37.60;99244.31;5056324;28;20377;-74
2021/05/21 02:41:25;;;;;;;7.47;3.17;;;;;;;23.38;37.70;99234.44;5055348;28;20048;-77
2021/05/21 02:43:51;;;;;;;12.35;2.25;;;;;;;23.33;38.15;99239.69;5038271;28;20048;-76
2021/05/21 02:46:17;;;;;;;3.78;1.90;;;;;;;23.03;38.47;99238.16;5054587;28;20552;-79
2021/05/21 02:48:43;;;;;;;25.83;1.92;;;;;;;22.81;38.58;99239.31;5038143;28;20072;-75
2021/05/21 02:51:09;;;;;;;12.48;2.00;;;;;;;22.86;38.84;99234.09;5055769;28;20076;-74
2021/05/21 02:53:35;;;;;;;14.73;1.85;;;;;;;22.73;38.77;99236.78;5055888;28;20059;-75
2021/05/21 02:56:01;;;;;;;10.95;1.55;;;;;;;22.76;39.10;99239.94;5054612;28;20119;-76
2021/05/21 02:58:27;;;;;;;12.68;2.53;;;;;;;22.87;39.00;99249.41;5037740;28;20389;-75
2021/05/21 03:00:53;;;;;;;7.88;1.70;;;;;;;22.85;39.00;99254.22;5037717;28;20045;-76
2021/05/21 03:03:19;;;;;;;9.75;1.60;;;;;;;22.68;39.26;99251.03;5037870;28;20047;-75
2021/05/21 03:05:45;;;;;;;12.60;1.77;;;;;;;22.67;39.31;99254.75;5004710;28;20045;-74
2021/05/21 03:08:12;;;;;;;4.97;2.00;;;;;;;22.72;39.25;99254.19;5047055;28;20103;-75
2021/05/21 03:10:38;;;;;;;7.88;2.15;;;;;;;22.72;39.56;99265.91;5034820;28;20492;-74
2021/05/21 03:13:04;;;;;;;7.40;1.65;;;;;;;22.70;39.44;99265.25;5034681;28;20494;-75
2021/05/21 03:15:30;;;;;;;7.13;2.20;;;;;;;22.75;39.23;99256.47;5017154;28;20177;-73
2021/05/21 03:17:56;;;;;;;10.95;2.00;;;;;;;22.88;39.31;99266.59;5017057;28;20491;-73
2021/05/21 03:20:22;;;;;;;13.35;1.85;;;;;;;22.88;39.36;99270.16;5001326;28;20119;-74
2021/05/21 03:22:48;;;;;;;11.27;2.17;;;;;;;22.87;39.34;99270.34;4967930;28;20555;-75
2021/05/21 03:25:14;;;;;;;8.73;1.50;;;;;;;22.66;39.85;99265.88;5034451;28;20049;-74
2021/05/21 03:27:40;;;;;;;10.38;1.63;;;;;;;22.73;40.12;99264.03;5016477;28;20038;-76
2021/05/21 03:30:07;;;;;;;21.50;2.00;;;;;;;22.69;39.97;99265.47;5000970;28;20045;-75
2021/05/21 03:32:33;;;;;;;10.90;1.98;;;;;;;22.63;40.25;99271.72;5017175;28;20476;-76
2021/05/21 03:34:59;;;;;;;12.05;1.80;;;;;;;22.73;40.13;99280.38;4984384;28;20049;-76
2021/05/21 03:37:26;;;;;;;10.88;2.00;;;;;;;22.62;40.50;99286.41;5000323;28;20049;-78
2021/05/21 03:39:52;;;;;;;15.05;2.30;;;;;;;22.57;40.79;99299.78;4999616;28;20559;-76
2021/05/21 03:42:18;;;;;;;10.98;1.60;;;;;;;22.73;40.29;99288.56;5000713;28;20041;-73
2021/05/21 03:44:44;;;;;;;7.93;1.65;;;;;;;22.71;40.55;99280.56;5000581;28;20084;-75
2021/05/21 03:47:10;;;;;;;3.47;2.00;;;;;;;22.85;40.24;99278.75;5000566;28;20223;-74
2021/05/21 03:49:36;;;;;;;9.55;2.72;;;;;;;22.95;40.17;99276.53;5000372;28;20048;-74
2021/05/21 03:52:02;;;;;;;7.40;2.20;;;;;;;22.99;40.16;99294.16;5000407;28;20042;-74
2021/05/21 03:54:28;;;;;;;10.23;1.65;;;;;;;23.03;40.31;99289.97;4999645;28;20095;-76
2021/05/21 03:56:54;;;;;;;17.50;4.93;;;;;;;23.10;41.07;99283.69;5016235;28;20053;-79
2021/05/21 03:59:20;;;;;;;14.27;2.10;;;;;;;23.28;40.17;99270.28;5016386;28;20115;-77
2021/05/21 04:01:46;;;;;;;15.27;2.08;;;;;;;23.39;40.06;99266.97;5016583;28;20509;-77
2021/05/21 04:04:12;;;;;;;10.55;2.83;;;;;;;23.68;40.12;99287.59;5000146;28;20046;-78
2021/05/21 04:06:38;;;;;;;13.32;2.75;;;;;;;23.87;40.18;99275.00;5016578;28;20052;-78
2021/05/21 04:09:07;;;;;;;9.95;2.20;;;;;;;24.01;39.33;99277.75;5041086;28;20049;-77
2021/05/21 04:11:37;;;;;;;6.97;2.20;;;;;;;23.91;39.27;99287.19;5036260;28;20041;-77
2021/05/21 04:14:04;;;;;;;18.35;2.00;;;;;;;23.76;39.09;99278.38;5052580;28;20124;-74
2021/05/21 04:16:29;;;;;;;13.05;2.50;;;;;;;23.70;40.05;99268.31;5052489;28;20045;-75
2021/05/21 04:18:55;;;;;;;6.55;2.03;;;;;;;23.83;39.50;99273.75;5034850;28;20080;-85
2021/05/21 04:21:21;;;;;;;10.38;2.20;;;;;;;23.89;39.28;99272.09;5054207;28;20064;-78
2021/05/21 04:23:48;;;;;;;7.72;1.98;;;;;;;23.86;39.41;99276.06;5055374;28;20059;-78
2021/05/21 04:26:15;;;;;;;12.50;2.10;;;;;;;23.91;39.70;99276.25;5057403;28;20044;-78
2021/05/21 04:28:41;;;;;;;3.97;1.92;;;;;;;23.74;39.67;99267.66;5023153;28;20415;-77
2021/05/21 04:31:07;;;;;;;9.55;1.83;;;;;;;23.64;40.23;99263.63;5072323;28;20090;-77
2021/05/21 04:33:33;;;;;;;13.10;2.00;;;;;;;23.68;40.20;99265.75;5072552;28;20044;-77
2021/05/21 04:35:59;;;;;;;11.60;2.40;;;;;;;23.88;41.11;99276.72;5072332;28;20052;-77
2021/05/21 04:38:26;;;;;;;12.43;1.80;;;;;;;23.97;39.82;99264.50;5055585;28;20131;-76
2021/05/21 04:40:52;;;;;;;8.90;2.10;;;;;;;24.16;39.60;99272.91;5072409;28;20037;-78
2021/05/21 04:43:25;;;;;;;15.13;2.10;;;;;;;24.26;39.49;99266.97;5073708;28;20036;-77
2021/05/21 04:45:51;;;;;;;12.75;2.00;;;;;;;24.34;39.28;99272.25;5072187;28;20051;-78
2021/05/21 04:48:17;;;;;;;12.00;2.10;;;;;;;24.37;39.01;99269.06;5072427;28;20089;-77
2021/05/21 04:50:44;;;;;;;6.32;2.08;;;;;;;24.37;39.27;99271.78;5072049;28;20040;-76
2021/05/21 04:53:11;;;;;;;7.93;2.13;;;;;;;24.49;39.92;99267.41;5071411;28;20041;-79
2021/05/21 04:55:37;;;;;;;21.17;1.92;;;;;;;24.55;39.02;99273.88;5072202;28;20052;-77
2021/05/21 04:58:02;;;;;;;17.52;2.00;;;;;;;24.49;38.33;99278.31;5073425;28;20041;-76
2021/05/21 05:00:28;;;;;;;21.58;2.28;;;;;;;24.32;38.61;99272.44;5073074;28;20126;-77
2021/05/21 05:02:55;;;;;;;11.65;2.10;;;;;;;24.40;38.49;99265.94;5038848;28;20045;-76
2021/05/21 05:05:21;;;;;;;22.20;2.40;;;;;;;24.44;38.20;99267.19;5071820;28;20055;-77
2021/05/21 05:07:46;;;;;;;9.63;2.08;;;;;;;24.41;38.06;99260.28;5069562;28;20117;-76
2021/05/21 05:10:12;;;;;;;14.68;2.08;;;;;;;24.34;38.63;99270.34;5054223;28;20069;-77
2021/05/21 05:12:41;;;;;;;14.57;1.90;;;;;;;24.45;38.50;99282.53;5018429;28;20091;-76
2021/05/21 05:15:08;;;;;;;28.80;2.63;;;;;;;24.60;38.54;99274.94;5053074;28;20052;-75
2021/05/21 05:17:34;;;;;;;4.95;1.90;;;;;;;24.65;38.33;99271.53;5052909;28;20045;-76
2021/05/21 05:20:00;;;;;;;13.65;2.58;;;;;;;24.79;38.57;99278.66;5034714;28;20132;-77
2021/05/21 05:22:25;;;;;;;12.35;2.35;;;;;;;24.83;38.15;99282.63;5052819;28;20076;-76
2021/05/21 05:24:51;;;;;;;12.23;2.20;;;;;;;24.88;38.49;99288.25;5035220;28;20128;-78
2021/05/21 05:27:17;;;;;;;18.13;2.83;;;;;;;24.87;38.08;99283.84;5035347;28;20076;-78
2021/05/21 05:29:46;;;;;;;10.18;2.22;;;;;;;24.76;38.36;99294.63;5034917;28;20147;-77
2021/05/21 05:32:13;;;;;;;18.35;2.42;;;;;;;24.93;38.92;99277.50;5018669;28;20041;-77
2021/05/21 05:34:39;;;;;;;6.45;2.53;;;;;;;25.10;38.70;99285.25;5034863;28;20045;-77
2021/05/21 05:37:05;;;;;;;15.10;2.47;;;;;;;25.27;38.26;99277.38;5029012;28;20167;-77
2021/05/21 05:39:31;;;;;;;12.85;2.08;;;;;;;25.36;38.07;99279.63;5052862;28;20488;-80
2021/05/21 05:41:56;;;;;;;18.15;2.92;;;;;;;25.42;38.21;99264.22;5018287;28;20033;-79
2021/05/21 05:44:22;;;;;;;22.67;2.15;;;;;;;25.59;38.10;99283.69;5035020;28;20049;-80
2021/05/21 05:46:48;;;;;;;7.60;2.17;;;;;;;25.71;37.79;99283.81;5052644;28;20603;-84
2021/05/21 05:49:14;;;;;;;16.00;2.47;;;;;;;25.73;37.96;99285.28;5019192;28;20037;-81
2021/05/21 05:51:40;;;;;;;10.73;2.42;;;;;;;25.99;37.64;99278.78;5055215;28;20135;-81
2021/05/21 05:54:06;;;;;;;14.90;3.13;;;;;;;26.03;37.30;99290.13;5022733;28;20420;-82
2021/05/21 05:56:32;;;;;;;13.32;2.88;;;;;;;25.84;37.79;99262.69;5060212;28;20051;-86
2021/05/21 05:58:58;;;;;;;24.73;2.90;;;;;;;26.00;37.19;99280.44;5030949;28;20043;-87
2021/05/21 06:01:24;;;;;;;19.52;2.33;;;;;;;26.12;37.50;99275.06;5038571;28;20033;-85
2021/05/21 06:03:50;;;;;;;33.75;3.00;;;;;;;26.19;37.41;99286.81;5063418;28;20399;-85
2021/05/21 06:06:16;;;;;;;27.63;2.90;;;;;;;26.29;37.67;99294.50;5062053;28;20127;-85
2021/05/21 06:08:42;;;;;;;15.40;2.70;;;;;;;26.41;37.40;99281.72;5057476;28;20143;-87
2021/05/21 06:11:08;;;;;;;26.77;3.40;;;;;;;26.61;37.89;99303.47;5057137;28;20036;-86
2021/05/21 06:13:35;;;;;;;23.50;3.75;;;;;;;26.72;38.13;99291.75;5056645;28;20377;-81
2021/05/21 06:16:01;;;;;;;11.48;2.80;;;;;;;26.92;37.58;99304.38;5057502;28;20056;-81
2021/05/21 06:18:26;;;;;;;21.65;2.97;;;;;;;26.91;38.83;99291.72;5038669;28;20045;-81
2021/05/21 06:20:52;;;;;;;14.18;3.03;;;;;;;26.99;38.63;99288.66;5038827;28;20136;-86
2021/05/21 06:23:18;;;;;;;27.40;3.33;;;;;;;27.15;38.35;99304.53;5039738;28;20558;-90
2021/05/21 06:28:11;;;;;;;24.70;3.35;;;;;;;27.19;38.57;99292.00;5039385;28;20095;-93
2021/05/21 06:30:37;;;;;;;9.63;2.55;;;;;;;27.39;38.37;99282.69;5056604;28;20045;-80
2021/05/21 06:33:03;;;;;;;11.88;3.67;;;;;;;27.55;38.41;99293.81;5056980;28;20152;-92
2021/05/21 06:35:29;;;;;;;20.38;3.30;;;;;;;27.70;38.71;99312.59;5040477;28;20103;-83
2021/05/21 06:37:55;;;;;;;16.42;2.75;;;;;;;27.82;39.02;99308.00;5056776;28;20496;-81
2021/05/21 06:40:21;;;;;;;9.57;2.90;;;;;;;27.89;38.72;99298.81;5021560;28;20056;-76
2021/05/21 06:42:48;;;;;;;13.13;2.90;;;;;;;28.20;38.69;99316.88;5055742;28;20049;-78
2021/05/21 06:45:14;;;;;;;12.43;3.00;;;;;;;28.45;37.80;99302.94;5021969;28;20049;-78
2021/05/21 06:47:40;;;;;;;8.95;2.70;;;;;;;28.62;37.73;99306.63;5040344;28;20401;-79
2021/05/21 06:50:07;;;;;;;14.32;3.22;;;;;;;28.57;37.57;99309.25;5038031;28;20077;-79
2021/05/21 06:52:33;;;;;;;10.15;2.92;;;;;;;28.79;37.35;99310.31;5038473;28;20048;-77
2021/05/21 06:54:59;;;;;;;10.82;2.80;;;;;;;29.12;37.11;99319.00;5021176;28;20116;-78
2021/05/21 06:57:25;;;;;;;10.20;2.90;;;;;;;29.16;36.10;99328.44;5055429;28;20075;-79
2021/05/21 06:59:52;;;;;;;11.30;2.67;;;;;;;29.07;36.36;99327.97;5005785;28;20052;-78
2021/05/21 07:02:20;;;;;;;13.50;3.15;;;;;;;29.12;36.63;99328.09;5021086;28;20044;-78
2021/05/21 07:04:46;;;;;;;9.73;2.78;;;;;;;29.42;36.58;99340.78;5037915;28;20088;-77
2021/05/21 07:07:11;;;;;;;33.20;3.25;;;;;;;29.29;36.22;99331.72;5037389;28;20564;-78
2021/05/21 07:09:37;;;;;;;7.82;2.55;;;;;;;29.45;35.73;99329.25;5055507;28;20048;-78
2021/05/21 07:12:04;;;;;;;6.65;2.47;;;;;;;29.71;35.75;99342.50;5057655;28;20048;-79
2021/05/21 07:14:31;;;;;;;7.88;3.03;;;;;;;29.97;35.53;99349.25;5057619;28;20414;-80
2021/05/21 07:16:57;;;;;;;8.50;2.53;;;;;;;30.23;35.24;99347.78;5040849;28;20067;-77
2021/05/21 07:19:23;;;;;;;11.38;2.95;;;;;;;30.51;34.81;99336.94;5075560;28;20040;-78
2021/05/21 07:21:49;;;;;;;8.93;2.80;;;;;;;30.63;34.72;99341.25;5075619;28;20041;-78
2021/05/21 07:24:16;;;;;;;10.93;2.80;;;;;;;30.68;35.12;99334.94;5075063;28;20072;-78
2021/05/21 07:26:42;;;;;;;9.15;3.22;;;;;;;30.58;35.30;99343.94;5040871;28;20048;-80
2021/05/21 07:29:08;;;;;;;9.85;2.85;;;;;;;30.72;35.32;99338.88;5073904;28;20131;-79
2021/05/21 07:31:34;;;;;;;12.40;2.88;;;;;;;30.86;35.06;99358.69;5073808;28;20067;-79
2021/05/21 07:34:00;;;;;;;8.10;2.72;;;;;;;29.86;35.76;99358.44;5074800;28;20052;-80
2021/05/21 07:36:28;;;;;;;6.97;2.40;;;;;;;28.77;37.47;99352.88;5040536;28;20049;-78
2021/05/21 07:38:58;;;;;;;26.25;3.35;;;;;;;28.32;37.45;99350.72;5072406;28;20411;-79
2021/05/21 07:41:25;;;;;;;10.20;2.65;;;;;;;28.85;37.60;99354.41;5056938;28;20036;-78
2021/05/21 07:43:52;;;;;;;8.60;2.88;;;;;;;28.72;36.79;99350.84;5073685;28;20109;-78
2021/05/21 07:46:19;;;;;;;7.03;2.72;;;;;;;29.06;37.45;99342.81;5040043;28;20095;-79
2021/05/21 07:48:45;;;;;;;10.70;3.22;;;;;;;29.27;36.79;99352.34;5073117;28;20048;-77
2021/05/21 07:51:11;;;;;;;9.02;2.47;;;;;;;29.10;36.38;99349.50;5074211;28;20518;-77
2021/05/21 07:53:37;;;;;;;8.90;2.28;;;;;;;28.88;36.70;99364.94;5072960;28;20177;-77
2021/05/21 07:56:04;;;;;;;5.65;2.70;;;;;;;28.53;36.31;99365.81;5072996;28;20048;-78
2021/05/21 07:58:30;;;;;;;6.10;2.50;;;;;;;28.86;37.15;99362.44;5040158;28;20083;-78
2021/05/21 08:00:58;;;;;;;10.68;2.70;;;;;;;29.11;36.44;99367.72;5040512;28;20047;-80
2021/05/21 08:03:24;;;;;;;6.28;2.30;;;;;;;29.25;35.82;99363.56;5056614;28;20051;-79
2021/05/21 08:05:50;;;;;;;6.38;2.15;;;;;;;29.36;35.50;99358.28;5073094;28;20454;-78
2021/05/21 08:08:20;;;;;;;12.18;2.90;;;;;;;29.46;35.69;99369.50;5068034;28;20056;-77
2021/05/21 08:10:53;;;;;;;10.90;3.08;;;;;;;29.55;35.17;99359.75;5021179;28;20056;-80
2021/05/21 08:13:19;;;;;;;8.90;2.88;;;;;;;29.85;35.46;99364.19;5019282;28;20049;-80
2021/05/21 08:15:45;;;;;;;6.40;2.13;;;;;;;29.84;34.61;99362.53;5036483;28;20044;-79
2021/05/21 08:18:11;;;;;;;5.95;2.45;;;;;;;29.71;34.45;99358.16;5053117;28;20557;-78
2021/05/21 08:20:38;;;;;;;9.40;3.08;;;;;;;29.86;34.66;99371.38;5035913;28;20178;-78
2021/05/21 08:23:04;;;;;;;9.98;2.58;;;;;;;30.03;34.75;99372.25;4971127;28;20079;-78
2021/05/21 08:25:30;;;;;;;5.93;2.33;;;;;;;30.06;34.13;99390.22;4988071;28;20460;-79
2021/05/21 08:27:56;;;;;;;11.35;2.53;;;;;;;29.62;34.50;99357.72;5035996;28;20092;-87
2021/05/21 08:30:22;;;;;;;5.75;2.17;;;;;;;28.99;35.84;99375.13;5019729;28;20076;-78
2021/05/21 08:32:49;;;;;;;10.35;2.72;;;;;;;28.93;36.59;99378.84;5053711;28;20102;-83
2021/05/21 08:35:19;;;;;;;11.57;2.40;;;;;;;29.37;35.63;99374.53;4987146;28;20032;-81
2021/05/21 08:37:45;;;;;;;8.95;2.53;;;;;;;29.67;35.08;99360.56;5019196;28;20131;-77
2021/05/21 08:40:13;;;;;;;9.30;2.22;;;;;;;30.10;34.71;99374.84;5053698;28;20049;-78
2021/05/21 08:42:39;;;;;;;;;;;;;;;30.45;34.35;99377.38;5020377;28;20044;-77
2021/05/21 08:45:06;;;;;;;8.30;2.50;;;;;;;30.70;34.04;99374.19;5054084;28;19920;-81
2021/05/21 08:47:33;;;;;;;21.00;5.13;;;;;;;31.04;33.75;99380.47;5053176;28;20040;-76
2021/05/21 08:50:07;;;;;;;4.90;2.92;;;;;;;31.47;33.56;99378.00;5018931;28;20479;-78
2021/05/21 08:52:33;;;;;;;5.57;2.42;;;;;;;31.33;33.09;99369.25;5019637;28;20036;-77
2021/05/21 08:54:59;;;;;;;11.20;2.58;;;;;;;30.88;33.32;99387.72;5003241;28;20514;-77
2021/05/21 08:57:25;;;;;;;6.68;2.45;;;;;;;31.17;33.17;99374.56;5053661;28;20131;-77
2021/05/21 08:59:51;;;;;;;10.07;2.35;;;;;;;31.64;32.50;99385.09;5035556;28;20041;-78
2021/05/21 09:02:27;;;;;;;10.88;2.22;;;;;;;31.65;32.16;99377.66;5035467;28;20091;-77
2021/05/21 09:04:58;;;;;;;11.77;2.00;;;;;;;31.05;32.33;99386.84;5018794;28;20052;-76
2021/05/21 09:07:32;;;;;;;8.48;2.13;;;;;;;30.24;33.56;99382.56;5053285;28;20157;-78
2021/05/21 09:09:59;;;;;;;6.00;2.22;;;;;;;30.53;33.73;99374.19;5055297;28;20091;-77
2021/05/21 09:12:42;;;;;;;5.00;2.35;;;;;;;31.21;32.40;99364.66;5054936;28;20044;-79
2021/05/21 09:15:11;;;;;;;7.80;1.90;;;;;;;31.38;31.36;99370.16;5071352;28;20098;-77
2021/05/21 09:17:42;;;;;;;8.13;2.03;;;;;;;30.81;31.50;99364.16;5021669;28;20048;-77
2021/05/21 09:20:08;;;;;;;9.15;2.10;;;;;;;30.06;33.06;99385.53;5023006;28;20052;-78
2021/05/21 09:22:35;;;;;;;7.35;2.33;;;;;;;30.08;33.10;99382.50;5039108;28;20122;-77
2021/05/21 09:25:01;;;;;;;4.95;1.77;;;;;;;30.03;33.40;99375.00;5053320;28;20048;-77
2021/05/21 09:27:28;;;;;;;10.52;2.67;;;;;;;29.73;33.12;99381.63;5071435;28;20411;-77
2021/05/21 09:29:56;;;;;;;9.18;2.22;;;;;;;30.17;33.20;99381.91;5054821;28;20043;-77
2021/05/21 09:32:32;;;;;;;4.05;2.10;;;;;;;30.80;32.34;99387.31;5073093;28;20071;-76
2021/05/21 09:35:13;;;;;;;8.13;2.20;;;;;;;31.07;32.10;99387.38;5055203;28;20515;-77
2021/05/21 09:37:42;;;;;;;3.42;2.00;;;;;;;31.60;31.12;99383.97;5072840;28;20125;-77
2021/05/21 09:40:13;;;;;;;5.82;1.90;;;;;;;31.81;30.33;99393.28;5054694;28;20048;-78
2021/05/21 09:42:55;;;;;;;8.25;2.10;;;;;;;31.65;30.54;99414.41;5072762;28;20132;-77
2021/05/21 09:45:22;;;;;;;4.43;1.55;;;;;;;31.99;30.63;99389.34;5056097;28;20041;-76
2021/05/21 09:47:59;;;;;;;4.40;1.80;;;;;;;31.89;30.64;99397.53;5054974;28;20090;-77
2021/05/21 09:50:51;;;;;;;4.82;2.00;;;;;;;32.03;30.45;99401.56;5071605;28;20131;-77
2021/05/21 09:53:21;;;;;;;5.47;2.10;;;;;;;32.49;29.81;99388.13;5038586;28;20039;-77
2021/05/21 09:55:59;;;;;;;3.42;1.92;;;;;;;33.13;28.47;99396.31;5038520;28;20036;-78
2021/05/21 09:58:28;;;;;;;4.30;1.70;;;;;;;33.12;28.90;99405.72;5055223;28;20080;-79
2021/05/21 10:01:16;;;;;;;13.82;1.73;;;;;;;32.78;29.20;99409.94;5037869;28;20044;-77
2021/05/21 10:03:48;;;;;;;5.43;1.77;;;;;;;32.18;29.74;99398.09;5071734;28;20037;-76
2021/05/21 10:06:16;;;;;;;5.93;1.77;;;;;;;32.67;29.18;99402.66;5054831;28;20449;-76
2021/05/21 10:08:44;;;;;;;5.63;1.67;;;;;;;31.97;29.57;99410.06;5054575;28;20106;-76
2021/05/21 10:11:10;;;;;;;9.52;1.83;;;;;;;30.68;31.18;99409.44;5055000;28;20047;-76
2021/05/21 10:13:36;;;;;;;11.98;2.45;;;;;;;31.57;30.75;99412.09;5071169;28;20044;-76
2021/05/21 10:16:03;;;;;;;11.45;1.85;;;;;;;32.72;29.19;99400.75;5071335;28;20044;-77
2021/05/21 10:18:29;;;;;;;6.43;1.95;;;;;;;33.23;28.35;99411.31;5054485;28;20411;-77
2021/05/21 10:20:56;;;;;;;5.13;2.20;;;;;;;34.04;28.19;99411.66;5071204;28;20040;-77
2021/05/21 10:23:40;;;;;;;3.75;1.65;;;;;;;34.33;26.60;99411.09;5071161;28;20036;-76
2021/05/21 10:26:14;;;;;;;7.25;1.60;;;;;;;32.43;28.38;99418.81;5054035;28;20613;-75
2021/05/21 10:28:41;;;;;;;10.95;2.28;;;;;;;31.74;29.73;99419.47;5070760;28;20565;-76
2021/05/21 10:31:09;;;;;;;8.88;1.80;;;;;;;31.81;29.42;99417.31;5020842;28;20040;-75
2021/05/21 10:33:36;;;;;;;5.28;1.58;;;;;;;31.88;29.32;99407.75;5054231;28;20051;-76
2021/05/21 10:36:28;;;;;;;5.35;2.10;;;;;;;31.08;30.11;99436.84;5057313;28;20036;-76
2021/05/21 10:39:13;;;;;;;7.93;1.60;;;;;;;31.31;29.35;99434.97;5074702;28;20044;-76
2021/05/21 10:42:00;;;;;;;9.48;1.60;;;;;;;31.21;28.96;99436.47;5074721;28;20052;-75
2021/05/21 10:44:36;;;;;;;8.77;1.70;;;;;;;31.29;29.55;99421.38;5074432;28;20094;-75
2021/05/21 10:47:17;;;;;;;5.53;1.75;;;;;;;32.79;28.47;99428.19;5058153;28;20043;-76
2021/05/21 10:49:52;;;;;;;4.22;1.63;;;;;;;32.47;27.62;99426.31;5075728;28;20040;-75
2021/05/21 10:52:19;;;;;;;5.88;1.80;;;;;;;32.04;28.41;99416.22;5057384;28;20041;-75
2021/05/21 10:54:48;;;;;;;5.95;1.40;;;;;;;32.04;28.57;99417.03;5057757;28;20070;-75
2021/05/21 10:57:18;;;;;;;5.03;1.80;;;;;;;33.35;27.47;99406.38;5040936;28;20411;-76
2021/05/21 10:59:51;;;;;;;12.98;1.77;;;;;;;34.81;26.50;99417.19;5074861;28;20052;-76
2021/05/21 11:02:26;;;;;;;4.80;1.88;;;;;;;34.70;25.81;99413.59;5074432;28;20048;-76
2021/05/21 11:04:55;;;;;;;6.15;1.50;;;;;;;33.49;26.70;99412.31;5074072;28;20055;-76
2021/05/21 11:07:35;;;;;;;5.25;1.30;;;;;;;31.54;28.26;99417.31;5074156;28;20526;-76
2021/05/21 11:10:01;;;;;;;7.97;1.70;;;;;;;30.94;29.90;99418.97;5040989;28;20044;-77
2021/05/21 11:12:52;;;;;;;9.55;1.58;;;;;;;31.81;28.37;99414.56;5074318;28;20040;-76
2021/05/21 11:15:33;;;;;;;16.67;2.10;;;;;;;33.41;27.13;99405.31;5057341;28;20094;-75
2021/05/21 11:18:27;;;;;;;4.80;1.58;;;;;;;34.60;26.15;99416.38;5073833;28;20133;-75
2021/05/21 11:21:07;;;;;;;7.07;1.48;;;;;;;34.87;25.59;99431.88;5069815;28;20114;-76
2021/05/21 11:23:46;;;;;;;8.52;1.67;;;;;;;35.03;25.18;99423.28;5073851;28;20048;-76
2021/05/21 11:26:17;;;;;;;11.15;1.80;;;;;;;34.83;25.21;99434.44;5056975;28;20048;-76
2021/05/21 11:28:43;;;;;;;7.53;2.00;;;;;;;33.25;26.63;99439.56;5074009;28;20086;-76
2021/05/21 11:31:14;;;;;;;1.92;1.35;;;;;;;33.17;26.74;99417.94;5073494;28;20041;-77
2021/05/21 11:33:40;;;;;;;8.13;1.60;;;;;;;34.38;26.17;99422.22;5057197;28;20048;-77
2021/05/21 11:36:06;;;;;;;5.20;1.52;;;;;;;36.05;24.67;99432.34;5057003;28;20599;-77
2021/05/21 11:38:33;;;;;;;5.63;1.40;;;;;;;35.63;24.48;99442.00;5040254;28;20124;-77